Time;durP1;ratioP1;P1;durP2;ratioP2;P2;SDS_P1;SDS_P2;PMS_P1;PMS_P2;Temp;Humidity;BMP_temperature;BMP_pressure;BME280_temperature;BME280_humidity;BME280_pressure;Samples;Min_cycle;Max_cycle;Signal;HPM_P1;HPM_P2
2023/08/08 00:02:00;;;;;;;2.30;1.80;;;15.70;99.90;;;;;;5058751;28;21009;-82
2023/08/08 00:04:27;;;;;;;3.30;1.93;;;15.70;99.90;;;;;;5022017;28;20480;-83
2023/08/08 00:06:55;;;;;;;2.70;1.90;;;15.70;99.90;;;;;;5017359;28;20468;-82
2023/08/08 00:09:21;;;;;;;2.67;1.80;;;15.70;99.90;;;;;;5018654;28;20492;-82
2023/08/08 00:11:48;;;;;;;2.83;1.70;;;15.70;99.90;;;;;;5019006;28;20479;-82
2023/08/08 00:14:15;;;;;;;4.70;2.17;;;15.70;99.90;;;;;;5018824;28;20453;-83
2023/08/08 00:16:43;;;;;;;2.70;2.00;;;15.70;99.90;;;;;;5017857;28;20453;-83
2023/08/08 00:19:09;;;;;;;4.73;2.00;;;15.70;99.90;;;;;;5019566;28;20450;-83
2023/08/08 00:21:36;;;;;;;2.13;1.50;;;15.70;99.90;;;;;;5019501;28;20866;-84
2023/08/08 00:24:05;;;;;;;3.20;1.60;;;15.70;99.90;;;;;;5020473;28;20546;-84
2023/08/08 00:26:32;;;;;;;1.80;1.20;;;15.80;99.90;;;;;;5027880;28;20821;-82
2023/08/08 00:28:58;;;;;;;4.13;1.77;;;15.80;99.90;;;;;;5025344;28;20451;-82
2023/08/08 00:31:25;;;;;;;3.30;1.70;;;15.70;99.90;;;;;;5018677;28;20484;-83
2023/08/08 00:33:52;;;;;;;3.50;1.50;;;15.80;99.90;;;;;;5018747;28;20446;-83
2023/08/08 00:36:19;;;;;;;2.90;1.60;;;15.80;99.90;;;;;;5018509;28;20457;-81
2023/08/08 00:38:46;;;;;;;2.60;1.93;;;15.80;99.90;;;;;;5018921;28;20472;-82
2023/08/08 00:41:14;;;;;;;2.77;1.80;;;15.80;99.90;;;;;;5018250;28;20482;-83
2023/08/08 00:43:40;;;;;;;3.00;2.00;;;15.80;99.90;;;;;;5017983;28;20456;-82
2023/08/08 00:46:07;;;;;;;4.17;1.70;;;15.80;99.90;;;;;;5018794;28;20446;-82
2023/08/08 00:48:34;;;;;;;3.73;1.30;;;15.80;99.90;;;;;;5018502;28;20445;-82
2023/08/08 00:51:01;;;;;;;2.83;1.70;;;15.80;92.00;;;;;;5018455;28;20493;-82
2023/08/08 00:53:31;;;;;;;5.43;1.90;;;15.80;96.50;;;;;;5018930;28;20906;-82
2023/08/08 00:55:58;;;;;;;2.70;1.70;;;15.70;90.80;;;;;;5018524;28;20453;-83
2023/08/08 00:58:27;;;;;;;3.40;1.70;;;15.80;99.90;;;;;;5017804;28;20462;-81
2023/08/08 01:00:57;;;;;;;2.33;1.57;;;15.70;80.90;;;;;;5017652;28;20462;-82
2023/08/08 01:03:24;;;;;;;2.20;1.43;;;15.70;91.60;;;;;;5018352;28;20485;-82
2023/08/08 01:05:58;;;;;;;2.40;1.70;;;15.70;99.90;;;;;;5018021;28;20449;-80
2023/08/08 01:08:32;;;;;;;2.83;1.60;;;15.70;97.80;;;;;;5018324;28;20502;-82
2023/08/08 01:10:59;;;;;;;2.93;1.60;;;15.60;76.40;;;;;;5017731;28;20492;-84
2023/08/08 01:13:31;;;;;;;3.03;2.10;;;15.60;89.00;;;;;;5018138;28;20451;-81
2023/08/08 01:15:59;;;;;;;4.87;2.17;;;15.70;66.10;;;;;;5017919;28;20445;-81
2023/08/08 01:18:27;;;;;;;3.80;1.97;;;15.70;89.70;;;;;;5018293;28;20869;-82
2023/08/08 01:20:55;;;;;;;4.00;1.70;;;15.60;62.60;;;;;;5018692;28;20481;-82
2023/08/08 01:23:29;;;;;;;3.47;1.60;;;15.60;59.60;;;;;;5018185;28;20532;-83
2023/08/08 01:25:59;;;;;;;4.40;2.50;;;15.60;71.30;;;;;;5018405;28;21231;-83
2023/08/08 01:28:26;;;;;;;3.23;1.87;;;15.60;52.90;;;;;;5018601;28;20973;-83
2023/08/08 01:30:53;;;;;;;3.83;2.10;;;15.60;27.70;;;;;;5022022;28;20528;-83
2023/08/08 01:33:20;;;;;;;4.97;2.33;;;15.60;28.10;;;;;;5022153;28;20544;-83
2023/08/08 01:35:51;;;;;;;4.27;2.37;;;15.60;50.30;;;;;;5022023;28;20457;-82
2023/08/08 01:38:24;;;;;;;3.70;2.10;;;15.60;42.90;;;;;;5021980;28;20533;-83
2023/08/08 01:40:51;;;;;;;3.27;1.83;;;15.70;48.80;;;;;;5022222;28;20669;-82
2023/08/08 01:43:21;;;;;;;3.53;2.17;;;15.70;50.30;;;;;;5021531;28;20939;-82
2023/08/08 01:45:48;;;;;;;2.50;1.80;;;15.70;65.90;;;;;;5021266;28;20545;-83
2023/08/08 01:48:15;;;;;;;3.87;2.07;;;15.70;48.20;;;;;;5022416;28;20479;-82
2023/08/08 01:50:42;;;;;;;4.50;2.43;;;15.70;85.10;;;;;;5021929;28;20498;-83
2023/08/08 01:53:08;;;;;;;5.00;1.80;;;15.70;89.20;;;;;;5021876;28;20478;-83
2023/08/08 01:55:35;;;;;;;5.20;2.70;;;15.70;89.00;;;;;;5021987;28;20469;-84
2023/08/08 01:58:02;;;;;;;5.10;2.17;;;15.60;90.80;;;;;;5022305;28;20452;-83
2023/08/08 02:00:30;;;;;;;3.97;2.17;;;15.60;70.60;;;;;;5020865;28;20468;-82
2023/08/08 02:02:58;;;;;;;2.30;1.77;;;15.60;74.00;;;;;;5021568;28;20463;-82
2023/08/08 02:05:25;;;;;;;4.50;2.20;;;15.60;65.30;;;;;;5021074;28;20526;-83
2023/08/08 02:07:51;;;;;;;5.37;2.87;;;15.60;59.60;;;;;;5021679;28;20442;-83
2023/08/08 02:10:18;;;;;;;3.87;2.13;;;15.60;71.80;;;;;;5021021;28;20572;-81
2023/08/08 02:12:45;;;;;;;2.70;2.00;;;15.60;48.20;;;;;;5020749;28;20464;-83
2023/08/08 02:15:12;;;;;;;4.37;1.97;;;15.50;57.00;;;;;;5020409;28;20458;-79
2023/08/08 02:17:40;;;;;;;5.57;2.13;;;15.50;95.60;;;;;;5021257;28;20445;-82
2023/08/08 02:20:08;;;;;;;3.13;1.67;;;15.50;99.90;;;;;;5021556;28;20442;-80
2023/08/08 02:22:35;;;;;;;2.70;1.67;;;15.40;91.30;;;;;;5020943;28;20489;-83
2023/08/08 02:25:01;;;;;;;2.90;2.03;;;15.50;90.10;;;;;;5021808;28;20826;-83
2023/08/08 02:27:28;;;;;;;3.50;2.27;;;15.50;94.40;;;;;;5021421;28;20449;-83
2023/08/08 02:29:57;;;;;;;6.50;2.40;;;15.50;79.30;;;;;;5021937;28;20496;-83
2023/08/08 02:32:23;;;;;;;3.30;2.47;;;15.50;85.70;;;;;;5022277;28;20456;-82
2023/08/08 02:34:52;;;;;;;5.50;3.60;;;15.50;96.00;;;;;;5021669;28;20455;-83
2023/08/08 02:37:18;;;;;;;4.50;2.27;;;15.40;62.40;;;;;;5032985;28;20447;-81
2023/08/08 02:39:45;;;;;;;4.37;2.30;;;15.50;91.80;;;;;;5024767;28;20450;-84
2023/08/08 02:42:12;;;;;;;5.03;2.20;;;15.50;99.90;;;;;;5020526;28;20479;-82
2023/08/08 02:44:39;;;;;;;4.77;2.97;;;15.50;99.90;;;;;;5021411;28;20457;-84
2023/08/08 02:47:06;;;;;;;4.43;2.37;;;15.50;99.90;;;;;;5020172;28;20458;-81
2023/08/08 02:49:33;;;;;;;5.03;2.83;;;15.50;99.90;;;;;;5021529;28;20529;-83
2023/08/08 02:52:01;;;;;;;3.80;2.60;;;15.40;93.80;;;;;;5021716;28;20596;-82
2023/08/08 02:54:28;;;;;;;4.43;2.30;;;15.40;99.90;;;;;;5021261;28;20541;-81
2023/08/08 02:56:55;;;;;;;3.53;1.93;;;15.40;99.90;;;;;;5020712;28;20453;-81
2023/08/08 02:59:22;;;;;;;4.80;2.50;;;15.40;99.90;;;;;;5020613;28;20985;-82
2023/08/08 03:01:49;;;;;;;2.67;2.07;;;15.40;99.90;;;;;;5020850;28;20484;-82
2023/08/08 03:04:16;;;;;;;4.90;2.43;;;15.40;95.00;;;;;;5020437;28;20512;-83
2023/08/08 03:06:42;;;;;;;3.60;2.50;;;15.40;99.90;;;;;;5020644;28;20836;-83
2023/08/08 03:09:10;;;;;;;6.13;2.60;;;15.40;99.90;;;;;;5020353;28;20450;-82
2023/08/08 03:11:41;;;;;;;3.57;2.10;;;15.40;99.90;;;;;;5019767;28;20504;-81
2023/08/08 03:14:08;;;;;;;5.10;2.50;;;15.40;99.90;;;;;;5020210;28;20458;-82
2023/08/08 03:16:34;;;;;;;3.80;2.10;;;15.40;99.90;;;;;;5019671;28;20634;-82
2023/08/08 03:19:01;;;;;;;5.90;2.23;;;15.50;99.90;;;;;;5019712;28;20445;-82
2023/08/08 03:21:28;;;;;;;6.27;2.87;;;15.40;99.90;;;;;;5019934;28;20476;-82
2023/08/08 03:23:55;;;;;;;5.10;3.00;;;15.50;99.90;;;;;;5020172;28;20450;-83
2023/08/08 03:26:23;;;;;;;3.67;2.30;;;15.50;96.40;;;;;;5020367;28;20816;-80
2023/08/08 03:28:53;;;;;;;3.60;2.10;;;15.50;89.70;;;;;;5020222;28;21009;-82
2023/08/08 03:31:20;;;;;;;2.77;2.10;;;15.50;99.90;;;;;;5019836;28;20516;-83
2023/08/08 03:33:47;;;;;;;6.47;2.40;;;15.50;96.20;;;;;;5019940;28;20460;-83
2023/08/08 03:36:14;;;;;;;11.50;2.50;;;15.40;99.90;;;;;;5019431;28;20453;-83
2023/08/08 03:38:44;;;;;;;4.93;2.60;;;15.40;99.90;;;;;;5020463;28;20524;-81
2023/08/08 03:41:11;;;;;;;5.07;2.60;;;15.40;99.90;;;;;;5019320;28;20473;-81
2023/08/08 03:43:39;;;;;;;4.40;2.47;;;15.40;99.90;;;;;;5019856;28;20456;-81
2023/08/08 03:46:06;;;;;;;8.50;2.93;;;15.40;99.90;;;;;;5019373;28;20446;-82
2023/08/08 03:48:33;;;;;;;7.07;3.10;;;15.20;99.90;;;;;;5019229;28;20456;-82
2023/08/08 03:51:00;;;;;;;4.43;2.90;;;15.20;99.90;;;;;;5018926;28;20555;-82
2023/08/08 03:53:26;;;;;;;3.87;2.87;;;15.20;99.90;;;;;;5018594;28;20464;-82
2023/08/08 03:55:53;;;;;;;5.53;3.20;;;15.10;99.90;;;;;;5019196;28;20465;-81
2023/08/08 03:58:20;;;;;;;4.20;2.87;;;15.00;99.90;;;;;;5019866;28;20516;-83
2023/08/08 04:00:48;;;;;;;6.87;3.40;;;14.90;99.90;;;;;;5018838;28;20476;-82
2023/08/08 04:03:16;;;;;;;5.90;3.20;;;14.80;99.90;;;;;;5018740;28;20487;-80
2023/08/08 04:05:46;;;;;;;7.23;3.10;;;14.70;99.90;;;;;;5018777;28;20452;-81
2023/08/08 04:08:13;;;;;;;5.77;3.60;;;14.60;99.90;;;;;;5018764;28;20461;-83
2023/08/08 04:10:40;;;;;;;5.83;2.70;;;14.60;99.90;;;;;;5018513;28;20513;-83
2023/08/08 04:13:07;;;;;;;4.87;3.03;;;14.50;99.90;;;;;;5018754;28;20469;-82
2023/08/08 04:15:33;;;;;;;5.40;3.33;;;14.50;99.90;;;;;;5018353;28;20827;-81
2023/08/08 04:18:02;;;;;;;6.13;3.43;;;14.50;99.90;;;;;;5019245;28;20451;-81
2023/08/08 04:20:28;;;;;;;5.20;3.40;;;14.50;99.90;;;;;;5018206;28;20461;-82
2023/08/08 04:22:55;;;;;;;7.53;3.30;;;14.50;99.90;;;;;;5018382;28;20463;-83
2023/08/08 04:25:23;;;;;;;5.83;4.40;;;14.50;99.90;;;;;;5017061;28;20449;-81
2023/08/08 04:27:49;;;;;;;5.67;3.70;;;14.50;99.90;;;;;;5017268;28;20459;-83
2023/08/08 04:30:16;;;;;;;4.97;3.00;;;14.50;99.90;;;;;;5017674;28;20476;-80
2023/08/08 04:32:43;;;;;;;6.80;3.23;;;14.50;99.90;;;;;;5018429;28;21036;-82
2023/08/08 04:35:11;;;;;;;7.50;3.27;;;14.50;99.90;;;;;;5018780;28;20451;-83
2023/08/08 04:37:38;;;;;;;5.63;2.70;;;14.40;99.90;;;;;;5018357;28;20472;-83
2023/08/08 04:40:08;;;;;;;5.40;3.77;;;14.40;99.90;;;;;;5018747;28;20860;-83
2023/08/08 04:42:35;;;;;;;5.17;3.90;;;14.40;99.90;;;;;;5019711;28;20464;-82
2023/08/08 04:45:01;;;;;;;6.97;3.83;;;14.40;99.90;;;;;;5019876;28;20449;-84
2023/08/08 04:47:28;;;;;;;4.43;3.20;;;14.40;99.90;;;;;;5029989;28;20461;-80
2023/08/08 04:49:55;;;;;;;6.93;3.53;;;14.40;99.90;;;;;;5050024;28;20460;-81
2023/08/08 04:52:23;;;;;;;5.57;3.40;;;14.40;99.90;;;;;;5049183;28;20482;-82
2023/08/08 04:54:50;;;;;;;7.97;4.10;;;14.50;99.90;;;;;;5057667;28;20455;-82
2023/08/08 04:57:17;;;;;;;6.60;3.57;;;14.60;99.90;;;;;;5056868;28;20457;-83
2023/08/08 04:59:44;;;;;;;6.70;3.97;;;14.50;99.90;;;;;;5057186;28;20451;-81
2023/08/08 05:02:10;;;;;;;7.50;3.97;;;14.50;99.90;;;;;;5057365;28;20468;-82
2023/08/08 05:04:37;;;;;;;8.30;4.17;;;14.60;99.90;;;;;;5057675;28;20459;-84
2023/08/08 05:07:05;;;;;;;7.13;4.03;;;14.60;99.90;;;;;;5056787;28;20456;-81
2023/08/08 05:09:34;;;;;;;5.63;3.93;;;14.60;99.90;;;;;;5057596;28;20483;-82
2023/08/08 05:12:01;;;;;;;5.90;4.30;;;14.60;99.90;;;;;;5060667;22;20492;-82
2023/08/08 05:14:27;;;;;;;6.10;4.57;;;14.60;99.90;;;;;;5038167;28;20558;-83
2023/08/08 05:16:54;;;;;;;8.37;4.50;;;14.70;99.90;;;;;;5037069;28;20904;-86
2023/08/08 05:19:21;;;;;;;8.83;5.17;;;14.70;99.90;;;;;;5037793;28;20445;-83
2023/08/08 05:21:48;;;;;;;6.40;4.13;;;14.80;99.90;;;;;;5037747;28;20471;-83
2023/08/08 05:24:15;;;;;;;9.03;5.60;;;14.90;99.90;;;;;;5038071;28;20540;-82
2023/08/08 05:26:43;;;;;;;5.43;4.73;;;14.90;99.90;;;;;;5038185;28;20484;-82
2023/08/08 05:29:09;;;;;;;11.40;6.20;;;14.90;99.90;;;;;;5038234;28;20455;-83
2023/08/08 05:31:36;;;;;;;10.50;6.77;;;15.00;99.90;;;;;;5037914;28;20586;-83
2023/08/08 05:34:03;;;;;;;11.57;6.90;;;15.00;99.90;;;;;;5038480;28;20537;-82
2023/08/08 05:36:30;;;;;;;8.30;5.93;;;15.10;99.90;;;;;;5039524;28;20456;-84
2023/08/08 05:38:57;;;;;;;6.93;6.10;;;15.10;99.90;;;;;;5041668;28;20498;-83
2023/08/08 05:41:24;;;;;;;12.77;7.33;;;15.10;99.90;;;;;;5039711;28;20471;-84
2023/08/08 05:43:52;;;;;;;12.50;7.27;;;15.10;99.90;;;;;;5040784;28;20453;-83
2023/08/08 05:46:19;;;;;;;12.80;7.77;;;15.20;99.90;;;;;;5039797;28;20459;-83
2023/08/08 05:48:46;;;;;;;11.20;7.90;;;15.20;99.90;;;;;;5039915;28;20447;-84
2023/08/08 05:51:13;;;;;;;9.77;7.30;;;15.10;99.90;;;;;;5039420;28;20491;-82
2023/08/08 05:53:40;;;;;;;9.77;7.63;;;15.20;99.90;;;;;;5040651;28;20453;-82
2023/08/08 05:56:08;;;;;;;17.13;8.90;;;15.20;99.90;;;;;;5040088;28;20890;-82
2023/08/08 05:58:36;;;;;;;11.43;10.23;;;15.20;99.90;;;;;;5039282;28;21002;-82
2023/08/08 06:01:09;;;;;;;12.57;10.27;;;15.10;99.90;;;;;;5039473;28;20472;-82
2023/08/08 06:03:37;;;;;;;13.00;8.87;;;15.20;99.90;;;;;;5038788;28;20447;-82
2023/08/08 06:06:04;;;;;;;12.07;9.10;;;15.20;99.90;;;;;;5039218;28;20463;-81
2023/08/08 06:08:31;;;;;;;14.80;9.50;;;15.20;99.90;;;;;;5039817;28;20480;-83
2023/08/08 06:10:58;;;;;;;17.13;10.63;;;15.30;99.90;;;;;;5039522;28;20493;-83
2023/08/08 06:13:25;;;;;;;13.57;9.70;;;15.40;99.90;;;;;;5039704;28;20878;-85
2023/08/08 06:15:52;;;;;;;13.30;10.67;;;15.40;99.90;;;;;;5041502;28;20452;-83
2023/08/08 06:18:20;;;;;;;17.90;10.67;;;15.40;99.90;;;;;;5043882;28;20467;-83
2023/08/08 06:20:47;;;;;;;15.03;10.50;;;15.50;99.90;;;;;;5042286;28;20471;-82
2023/08/08 06:23:14;;;;;;;11.17;10.03;;;15.50;99.90;;;;;;5043434;28;20804;-83
2023/08/08 06:25:41;;;;;;;18.40;11.70;;;15.50;99.90;;;;;;5043870;28;20502;-84
2023/08/08 06:28:08;;;;;;;17.17;10.83;;;15.50;99.90;;;;;;5044087;28;20531;-83
2023/08/08 06:30:35;;;;;;;15.87;11.37;;;15.60;99.90;;;;;;5042196;28;20475;-83
2023/08/08 06:33:02;;;;;;;16.07;12.07;;;15.70;99.90;;;;;;5042987;28;20505;-82
2023/08/08 06:35:30;;;;;;;14.83;10.93;;;15.60;99.90;;;;;;5042182;28;20457;-82
2023/08/08 06:37:57;;;;;;;16.93;12.30;;;15.70;99.90;;;;;;5042577;28;20536;-81
2023/08/08 06:40:24;;;;;;;11.67;10.47;;;15.70;99.90;;;;;;5040486;28;20982;-85
2023/08/08 06:42:50;;;;;;;13.17;9.93;;;15.80;99.90;;;;;;5040107;28;20502;-82
2023/08/08 06:45:17;;;;;;;16.30;10.90;;;15.80;99.90;;;;;;5040102;28;20452;-81
2023/08/08 06:47:44;;;;;;;15.40;10.67;;;15.80;99.90;;;;;;5039893;28;20456;-84
2023/08/08 06:50:11;;;;;;;13.43;11.90;;;15.80;99.90;;;;;;5040109;28;21021;-82
2023/08/08 06:52:40;;;;;;;15.00;10.90;;;15.80;99.90;;;;;;5040303;28;20535;-83
2023/08/08 06:55:07;;;;;;;18.20;13.47;;;15.80;99.90;;;;;;5040353;28;20552;-81
2023/08/08 06:57:35;;;;;;;18.27;11.83;;;15.90;99.90;;;;;;5041309;28;20914;-83
2023/08/08 07:00:04;;;;;;;17.30;10.70;;;15.80;99.90;;;;;;5040805;28;20543;-82
2023/08/08 07:02:31;;;;;;;17.10;12.03;;;15.90;99.90;;;;;;5040305;28;20476;-82
2023/08/08 07:04:58;;;;;;;14.93;10.73;;;15.90;99.90;;;;;;5038134;28;20452;-82
2023/08/08 07:07:25;;;;;;;11.80;10.10;;;16.00;99.90;;;;;;5035581;28;20991;-84
2023/08/08 07:09:53;;;;;;;18.07;10.80;;;16.00;99.90;;;;;;5035817;28;20491;-82
2023/08/08 07:12:20;;;;;;;17.80;12.73;;;16.00;99.90;;;;;;5036023;28;20874;-83
2023/08/08 07:14:47;;;;;;;14.30;11.50;;;16.10;99.90;;;;;;5037300;28;20545;-82
2023/08/08 07:17:14;;;;;;;12.50;11.20;;;16.00;99.90;;;;;;5038639;28;20547;-82
2023/08/08 07:19:41;;;;;;;14.37;11.83;;;16.10;99.90;;;;;;5040488;28;20459;-80
2023/08/08 07:22:09;;;;;;;16.40;12.63;;;16.10;99.90;;;;;;5039512;28;20465;-83
2023/08/08 07:24:35;;;;;;;19.70;11.47;;;16.20;99.90;;;;;;5039015;28;21192;-82
2023/08/08 07:27:04;;;;;;;16.77;13.13;;;16.30;99.90;;;;;;5039916;28;20542;-82
2023/08/08 07:29:31;;;;;;;15.23;12.90;;;16.30;99.90;;;;;;5039486;28;20461;-82
2023/08/08 07:31:59;;;;;;;17.53;13.37;;;16.40;99.90;;;;;;5038629;28;20492;-83
2023/08/08 07:34:26;;;;;;;21.57;13.57;;;16.30;99.90;;;;;;5039651;28;20984;-82
2023/08/08 07:36:52;;;;;;;14.70;12.47;;;16.30;99.90;;;;;;5038821;28;20453;-83
2023/08/08 07:39:19;;;;;;;13.87;12.47;;;16.40;99.90;;;;;;5038715;28;20535;-82
2023/08/08 07:41:46;;;;;;;19.03;12.50;;;16.50;99.90;;;;;;5039891;28;20520;-83
2023/08/08 07:44:14;;;;;;;13.63;12.23;;;16.60;99.90;;;;;;5039271;28;20455;-82
2023/08/08 07:46:41;;;;;;;15.53;12.77;;;16.60;99.90;;;;;;5038921;28;20459;-81
2023/08/08 07:49:09;;;;;;;13.50;11.30;;;16.60;99.90;;;;;;5039728;28;20492;-83
2023/08/08 07:51:36;;;;;;;15.03;11.10;;;16.70;99.90;;;;;;5038082;28;20493;-82
2023/08/08 07:54:05;;;;;;;14.13;11.40;;;16.90;99.90;;;;;;5039000;28;20448;-82
2023/08/08 07:56:32;;;;;;;12.17;10.43;;;16.90;99.90;;;;;;5039163;28;20901;-80
2023/08/08 07:58:59;;;;;;;14.17;10.90;;;16.90;99.90;;;;;;5040045;28;20447;-83
2023/08/08 08:01:28;;;;;;;18.73;10.60;;;16.90;99.90;;;;;;5041396;28;20480;-84
2023/08/08 08:03:55;;;;;;;16.90;9.53;;;17.10;99.90;;;;;;5043747;28;20454;-84
2023/08/08 08:06:21;;;;;;;8.60;7.77;;;17.10;99.90;;;;;;5042087;28;20898;-85
2023/08/08 08:08:48;;;;;;;9.80;7.93;;;17.20;99.90;;;;;;5039454;28;20515;-82
2023/08/08 08:11:16;;;;;;;8.57;7.67;;;17.30;99.90;;;;;;5039314;28;20504;-82
2023/08/08 08:13:43;;;;;;;9.53;6.97;;;17.30;99.90;;;;;;5038627;28;20454;-81
2023/08/08 08:16:10;;;;;;;10.13;7.20;;;17.40;99.90;;;;;;5037707;28;20482;-82
2023/08/08 08:18:38;;;;;;;10.30;7.10;;;17.50;99.90;;;;;;5038284;28;20483;-82
2023/08/08 08:21:05;;;;;;;7.43;6.73;;;17.60;99.90;;;;;;5038897;28;20474;-82
2023/08/08 08:23:32;;;;;;;12.37;7.00;;;17.70;99.90;;;;;;5039170;28;20504;-82
2023/08/08 08:25:59;;;;;;;11.73;6.97;;;17.70;99.90;;;;;;5038739;28;20957;-83
2023/08/08 08:28:26;;;;;;;9.67;5.73;;;17.60;99.90;;;;;;5038762;28;20457;-82
2023/08/08 08:30:54;;;;;;;9.10;5.73;;;17.60;99.90;;;;;;5039889;28;20507;-82
2023/08/08 08:33:20;;;;;;;5.47;4.93;;;17.60;99.90;;;;;;5038479;28;20482;-83
2023/08/08 08:35:49;;;;;;;9.87;6.50;;;17.80;99.90;;;;;;5039924;28;20448;-83
2023/08/08 08:38:15;;;;;;;5.33;4.43;;;17.90;99.90;;;;;;5038636;28;20487;-82
2023/08/08 08:40:44;;;;;;;7.70;5.10;;;18.00;98.60;;;;;;5039897;28;20818;-82
2023/08/08 08:43:12;;;;;;;5.10;4.30;;;18.10;94.20;;;;;;5039647;28;20449;-83
2023/08/08 08:45:41;;;;;;;8.63;4.23;;;18.20;99.90;;;;;;5038938;28;20450;-82
2023/08/08 08:48:11;;;;;;;5.60;4.30;;;18.30;98.30;;;;;;5038920;28;20969;-83
2023/08/08 08:50:39;;;;;;;8.43;4.00;;;18.30;71.10;;;;;;5039114;28;20453;-84
2023/08/08 08:53:08;;;;;;;8.23;4.47;;;18.20;15.20;;;;;;5039174;28;20488;-82
2023/08/08 08:55:35;;;;;;;5.77;5.13;;;18.30;53.10;;;;;;5039729;28;20872;-82
2023/08/08 08:58:02;;;;;;;8.67;4.00;;;18.40;27.60;;;;;;5039464;28;20455;-81
2023/08/08 09:00:30;;;;;;;5.67;3.20;;;18.30;14.60;;;;;;5038262;28;20441;-82
2023/08/08 09:02:57;;;;;;;5.27;2.70;;;18.20;1.00;;;;;;5038539;28;20528;-82
2023/08/08 09:05:25;;;;;;;8.53;3.43;;;18.20;5.40;;;;;;5038476;28;20544;-83
2023/08/08 09:07:55;;;;;;;8.60;3.17;;;18.20;30.80;;;;;;5038934;28;20514;-82
2023/08/08 09:10:26;;;;;;;5.60;3.37;;;18.20;24.90;;;;;;5038124;28;20562;-82
2023/08/08 09:12:53;;;;;;;3.80;2.30;;;18.20;32.80;;;;;;5039300;28;20922;-81
2023/08/08 09:15:20;;;;;;;3.00;2.10;;;18.10;1.00;;;;;;5039428;28;20476;-82
2023/08/08 09:17:47;;;;;;;4.43;2.70;;;18.10;1.00;;;;;;5040096;28;20456;-82
2023/08/08 09:20:14;;;;;;;4.67;2.67;;;18.40;18.60;;;;;;5039685;28;20456;-81
2023/08/08 09:22:41;;;;;;;4.10;3.03;;;18.60;1.00;;;;;;5040360;28;20494;-81
2023/08/08 09:25:08;;;;;;;5.80;3.03;;;18.70;1.00;;;;;;5039460;28;20492;-81
2023/08/08 09:27:37;;;;;;;5.37;2.30;;;18.60;1.00;;;;;;5038597;28;20433;-81
2023/08/08 09:30:05;;;;;;;5.00;2.53;;;18.70;1.00;;;;;;5038723;28;20906;-82
2023/08/08 09:32:32;;;;;;;5.47;2.80;;;18.80;1.00;;;;;;5038728;28;20493;-82
2023/08/08 09:35:00;;;;;;;4.97;2.17;;;18.80;1.00;;;;;;5037546;28;20957;-83
2023/08/08 09:37:27;;;;;;;7.87;2.40;;;18.70;1.00;;;;;;5037524;28;21044;-81
2023/08/08 09:39:58;;;;;;;4.30;2.40;;;18.70;1.00;;;;;;5038481;28;20459;-82
2023/08/08 09:42:26;;;;;;;4.27;2.17;;;18.70;1.00;;;;;;5037451;28;20551;-83
2023/08/08 09:44:55;;;;;;;4.00;2.40;;;18.70;1.00;;;;;;5038539;28;20514;-81
2023/08/08 09:47:22;;;;;;;8.43;2.93;;;18.90;1.00;;;;;;5036841;28;20452;-81
2023/08/08 09:49:49;;;;;;;8.53;2.53;;;19.10;1.00;;;;;;5037613;28;20457;-83
2023/08/08 09:52:16;;;;;;;6.40;2.43;;;19.20;1.00;;;;;;5041868;28;20485;-81
2023/08/08 09:54:43;;;;;;;3.90;2.17;;;19.30;1.00;;;;;;5043008;28;20647;-81
2023/08/08 09:57:11;;;;;;;4.60;1.80;;;19.40;99.90;;;;;;5044362;28;20459;-85
2023/08/08 09:59:38;;;;;;;4.40;2.13;;;19.60;99.20;;;;;;5043516;28;20516;-82
2023/08/08 10:02:11;;;;;;;4.47;1.80;;;19.80;99.90;;;;;;5043642;28;20468;-83
2023/08/08 10:04:38;;;;;;;7.60;2.60;;;20.20;1.00;;;;;;5043530;28;20854;-82
2023/08/08 10:07:05;;;;;;;6.60;2.10;;;20.20;1.00;;;;;;5045176;28;20979;-81
2023/08/08 10:09:33;;;;;;;4.00;1.63;;;20.40;19.50;;;;;;5045129;28;20507;-82
2023/08/08 10:12:01;;;;;;;3.43;2.27;;;20.50;99.90;;;;;;5045361;28;20500;-82
2023/08/08 10:14:31;;;;;;;5.10;2.30;;;20.40;99.90;;;;;;5041789;28;20437;-82
2023/08/08 10:16:58;;;;;;;4.30;2.00;;;20.20;99.90;;;;;;5041390;28;20455;-81
2023/08/08 10:19:26;;;;;;;4.67;2.80;;;19.90;1.00;;;;;;5041737;28;20810;-81
2023/08/08 10:21:59;;;;;;;5.53;2.77;;;19.50;99.90;;;;;;5041376;28;20480;-81
2023/08/08 10:24:26;;;;;;;7.00;2.80;;;19.30;1.00;;;;;;5042009;28;20508;-86
2023/08/08 10:26:53;;;;;;;6.40;2.30;;;19.00;99.90;;;;;;5041344;28;20624;-83
2023/08/08 10:29:21;;;;;;;4.27;2.53;;;19.00;1.00;;;;;;5041518;28;21021;-83
2023/08/08 10:31:52;;;;;;;5.20;2.30;;;18.90;1.00;;;;;;5040428;28;20472;-81
2023/08/08 10:34:21;;;;;;;3.80;1.97;;;18.90;1.00;;;;;;5040518;28;20455;-82
2023/08/08 10:36:53;;;;;;;5.80;1.97;;;19.20;99.90;;;;;;5045937;28;20453;-82
2023/08/08 10:39:21;;;;;;;4.33;2.20;;;19.30;1.00;;;;;;5046055;28;20542;-83
2023/08/08 10:41:50;;;;;;;4.70;2.23;;;19.20;99.90;;;;;;5044770;28;20471;-83
2023/08/08 10:44:24;;;;;;;4.00;2.07;;;19.00;99.90;;;;;;5043732;28;20528;-82
2023/08/08 10:46:52;;;;;;;7.80;2.70;;;18.70;99.90;;;;;;5044127;28;20793;-83
2023/08/08 10:49:19;;;;;;;8.97;2.33;;;18.40;99.90;;;;;;5043805;28;20927;-83
2023/08/08 10:51:47;;;;;;;8.50;3.87;;;18.30;1.00;;;;;;5044027;28;20551;-83
2023/08/08 10:54:17;;;;;;;4.10;2.00;;;18.10;99.90;;;;;;5041913;28;20512;-84
2023/08/08 10:56:49;;;;;;;6.17;2.20;;;18.00;99.90;;;;;;5041236;28;20521;-82
2023/08/08 10:59:18;;;;;;;4.07;2.10;;;17.90;1.00;;;;;;5041873;28;20540;-83
2023/08/08 11:01:48;;;;;;;6.37;2.83;;;17.80;99.90;;;;;;5040800;28;20506;-83
2023/08/08 11:04:16;;;;;;;5.00;2.37;;;17.70;1.00;;;;;;5040831;28;20460;-82
2023/08/08 11:06:43;;;;;;;3.60;2.57;;;17.70;1.00;;;;;;5041389;28;20540;-84
2023/08/08 11:09:10;;;;;;;6.87;2.93;;;17.60;1.00;;;;;;5041629;28;20457;-83
2023/08/08 11:11:40;;;;;;;4.90;2.20;;;17.50;1.00;;;;;;5069162;22;20602;-83
2023/08/08 11:14:11;;;;;;;3.53;2.63;;;17.40;21.60;;;;;;5061596;28;20483;-84
2023/08/08 11:16:38;;;;;;;4.57;2.40;;;17.40;1.00;;;;;;5060751;28;20447;-83
2023/08/08 11:19:05;;;;;;;5.07;2.60;;;17.50;4.50;;;;;;5059431;28;20462;-83
2023/08/08 11:21:35;;;;;;;9.33;2.60;;;17.60;99.90;;;;;;5060429;28;20473;-83
2023/08/08 11:24:03;;;;;;;5.23;2.20;;;17.90;99.90;;;;;;5060081;28;20454;-84
2023/08/08 11:26:31;;;;;;;4.50;2.20;;;18.40;99.90;;;;;;5059626;28;20511;-84
2023/08/08 11:29:00;;;;;;;5.40;2.20;;;18.70;99.90;;;;;;5060165;28;20503;-83
2023/08/08 11:31:27;;;;;;;5.93;2.40;;;18.70;99.90;;;;;;5060045;28;20899;-84
2023/08/08 11:33:55;;;;;;;4.60;2.27;;;18.70;99.90;;;;;;5059599;28;20542;-82
2023/08/08 11:36:23;;;;;;;7.60;2.30;;;18.50;99.90;;;;;;5060407;28;20452;-83
2023/08/08 11:38:51;;;;;;;3.50;2.37;;;18.40;1.00;;;;;;5061095;28;20448;-83
2023/08/08 11:41:20;;;;;;;4.17;2.87;;;18.70;7.40;;;;;;5061126;28;20976;-83
2023/08/08 11:43:47;;;;;;;4.40;2.43;;;18.90;99.90;;;;;;5061335;28;21011;-83
2023/08/08 11:46:17;;;;;;;5.30;1.97;;;19.00;99.90;;;;;;5060820;28;20455;-83
2023/08/08 11:48:46;;;;;;;7.17;4.03;;;19.10;99.90;;;;;;5061217;28;20478;-83
2023/08/08 11:51:17;;;;;;;5.97;2.33;;;19.60;1.00;;;;;;5060503;28;20531;-84
2023/08/08 11:53:50;;;;;;;4.33;1.93;;;20.50;99.90;;;;;;5061218;28;20483;-83
2023/08/08 11:56:18;;;;;;;2.60;1.87;;;21.30;99.90;;;;;;5061159;28;20451;-83
2023/08/08 11:58:45;;;;;;;3.33;1.73;;;21.90;1.00;;;;;;5061141;28;21198;-84
2023/08/08 12:01:13;;;;;;;6.10;1.80;;;22.00;99.90;;;;;;5060039;28;20462;-84
2023/08/08 12:03:42;;;;;;;2.90;1.80;;;21.80;99.90;;;;;;5059993;28;20449;-83
2023/08/08 12:06:15;;;;;;;5.60;2.57;;;21.90;99.90;;;;;;5058614;28;20535;-84
2023/08/08 12:08:43;;;;;;;5.03;2.30;;;22.20;99.90;;;;;;5060174;28;20551;-83
2023/08/08 12:11:11;;;;;;;4.23;1.97;;;22.30;99.90;;;;;;5059457;28;20452;-83
2023/08/08 12:13:40;;;;;;;5.70;2.27;;;22.40;1.00;;;;;;5058886;28;20503;-83
2023/08/08 12:16:07;;;;;;;2.80;1.30;;;22.40;1.00;;;;;;5059617;28;20444;-84
2023/08/08 12:18:37;;;;;;;5.90;2.27;;;22.50;1.00;;;;;;5060357;28;20521;-83
2023/08/08 12:21:06;;;;;;;3.20;2.00;;;22.30;1.00;;;;;;5059503;28;20447;-84
2023/08/08 12:23:34;;;;;;;5.60;2.07;;;22.40;8.00;;;;;;5059588;28;20908;-83
2023/08/08 12:26:03;;;;;;;4.00;1.70;;;22.90;1.00;;;;;;5058908;28;20817;-83
2023/08/08 12:28:30;;;;;;;5.93;2.10;;;23.30;99.90;;;;;;5059492;28;20529;-83
2023/08/08 12:30:56;;;;;;;4.60;1.73;;;23.80;1.00;;;;;;5059531;28;20448;-82
2023/08/08 12:33:23;;;;;;;9.57;2.63;;;23.80;1.00;;;;;;5059677;28;20594;-84
2023/08/08 12:35:50;;;;;;;5.50;1.80;;;23.80;1.00;;;;;;5058840;28;20448;-84
2023/08/08 12:38:18;;;;;;;3.63;1.60;;;24.10;1.00;;;;;;5059749;28;20527;-83
2023/08/08 12:40:45;;;;;;;3.50;1.77;;;24.30;1.00;;;;;;5059443;28;20459;-82
2023/08/08 12:43:16;;;;;;;3.30;1.70;;;23.80;1.00;;;;;;5059155;28;20567;-83
2023/08/08 12:45:43;;;;;;;4.20;1.80;;;23.50;1.00;;;;;;5059025;28;20955;-82
2023/08/08 12:48:10;;;;;;;2.53;1.30;;;23.40;1.00;;;;;;5059763;28;20452;-84